메인 페이지
METAR-TAF:

METAR-TAF

공항 :

Lawson Army Airfield

콜럼버스, 조지아, 미국

위도: 32-20N, 경도: 084-50W, 고도: 71m

현재 날씨관측

예보는 25분 전, 00:56시(UTC)에 발표되었습니다.
무풍
온도 13°C
습도 41%
기압 1017 hPa
시정: 16.1km
고도 4100ft 상공 흐림

METAR: KLSF 170056Z AUTO 00000KT 10SM OVC041 13/ A3003 RMK AO2 SLP175 $

시각: 20:21 (01:21 UTC)

예보

예보는 22 시간 31분 전, 02:50시(UTC)에 발표되었습니다.
예보 대상 시간: 16일 02시부터 17일 07시까지 (UTC)
9kt
시정 10km 이상
고도 3500ft 상공 흐림
전환 중
16일 05시부터 16일 06시까지 (UTC)
6kt
시정 10km 이상
고도 1000ft 상공 구름 보통
고도 2500ft 상공 구름 많음
전환 중
16일 14시부터 16일 15시까지 (UTC)
6kt
시정 10km 이상
고도 6000ft 상공 구름 조금
전환 중
16일 17시부터 16일 18시까지 (UTC)
북북동9kt
시정: 1801m
맑음

TAF: KLSF 160250Z 1602/1707 35009KT 9999 OVC035 QNH3006INS BECMG 1605/1606 36006KT 9999 SCT010 BKN025 WS020/02035KT QNH3004INS BECMG 1614/1615 01006KT 9999 FEW060 QNH3005INS BECMG 1617/1618 02009KT 9999 SKC QNH3002INS TX15/1619Z TN06/1611Z LAST NO AMDS AFT 1604 NEXT 1801

4,000개 이상의 공항 관측 자료 및 예보 (METAR 및 TAF 보고).

지도상에서 검색 가능한 기상관측소가 노란 점과 빨간 점으로 표시되어 있습니다.

기상관측소 명을 보려면 표시 위로 마우스를 이동하세요.

날씨 관측과 예보를 보려면 클릭하세요.

지도 변경 : 확대하려면 엑스 표시가 있는 녹색 버튼, 축소하려면 빼기 표시가 있는 녹색 버튼, 다음 페이지의 지도를 보려면 녹색 화살표를 클릭하세요.


METAR-TAF: